createdAt,value
2018-11-02T00:02:07.389Z,91.26
2018-11-02T00:04:36.534Z,91.56
2018-11-02T00:07:05.673Z,90.59
2018-11-02T00:09:34.865Z,90.03
2018-11-02T00:12:03.999Z,90.11
2018-11-02T00:14:33.159Z,89.61
2018-11-02T00:17:02.294Z,89.77
2018-11-02T00:19:33.328Z,89.88
2018-11-02T00:22:04.073Z,89.72
2018-11-02T00:24:33.282Z,89.44
2018-11-02T00:27:02.682Z,88.57
2018-11-02T00:29:32.919Z,87.35
2018-11-02T00:32:02.205Z,87.27
2018-11-02T00:34:31.245Z,87.34
2018-11-02T00:37:00.401Z,86.91
2018-11-02T00:39:29.508Z,86.37
2018-11-02T00:41:58.658Z,85.74
2018-11-02T00:44:27.823Z,85.53
2018-11-02T00:46:56.958Z,84.94
2018-11-02T00:49:26.099Z,84.46
2018-11-02T00:51:55.609Z,83.78
2018-11-02T00:54:24.779Z,83.92
2018-11-02T00:56:53.906Z,83.99
2018-11-02T00:59:23.087Z,83.51
2018-11-02T01:01:52.218Z,84.40
2018-11-02T01:04:21.413Z,84.20
2018-11-02T01:06:50.588Z,84.62
2018-11-02T01:09:19.742Z,85.48
2018-11-02T01:11:48.968Z,84.91
2018-11-02T01:14:18.101Z,85.43
2018-11-02T01:16:47.312Z,85.13
2018-11-02T01:19:16.406Z,85.23
2018-11-02T01:21:45.547Z,85.37
2018-11-02T01:24:14.870Z,85.75
2018-11-02T01:26:44.022Z,85.89
2018-11-02T01:29:13.189Z,86.07
2018-11-02T01:31:42.369Z,86.12
2018-11-02T01:34:11.490Z,85.66
2018-11-02T01:36:40.612Z,86.24
2018-11-02T01:39:10.097Z,86.34
2018-11-02T01:41:39.261Z,86.73
2018-11-02T01:44:08.449Z,87.34
2018-11-02T01:46:37.620Z,87.73
2018-11-02T01:49:07.075Z,88.01
2018-11-02T01:51:36.241Z,88.01
2018-11-02T01:54:05.476Z,87.85
2018-11-02T01:56:34.640Z,87.66
2018-11-02T01:59:03.818Z,87.13
2018-11-02T02:01:32.968Z,87.31
2018-11-02T02:04:02.222Z,87.08
2018-11-02T02:06:31.381Z,86.28
2018-11-02T02:09:00.543Z,86.87
2018-11-02T02:11:29.662Z,87.11
2018-11-02T02:13:58.835Z,86.69
2018-11-02T02:16:27.983Z,86.93
2018-11-02T02:18:57.132Z,86.58
2018-11-02T02:21:26.403Z,86.78
2018-11-02T02:23:55.558Z,86.95
2018-11-02T02:26:24.675Z,87.76
2018-11-02T02:28:53.845Z,87.64
2018-11-02T02:31:23.019Z,87.83
2018-11-02T02:33:52.137Z,88.34
2018-11-02T02:36:21.278Z,88.31
2018-11-02T02:38:50.413Z,89.13
2018-11-02T02:41:19.532Z,89.11
2018-11-02T02:43:48.679Z,89.24
2018-11-02T02:46:17.937Z,89.45
2018-11-02T02:48:47.134Z,89.49
2018-11-02T02:51:16.276Z,90.11
2018-11-02T02:53:45.426Z,90.33
2018-11-02T02:56:14.558Z,90.64
2018-11-02T02:58:43.705Z,90.51
2018-11-02T03:01:12.856Z,91.00
2018-11-02T03:03:42.077Z,91.09
2018-11-02T03:06:11.289Z,91.20
2018-11-02T03:08:40.447Z,91.41
2018-11-02T03:11:10.037Z,91.42
2018-11-02T03:13:38.938Z,91.74
2018-11-02T03:16:08.091Z,92.07
2018-11-02T03:18:37.305Z,92.13
2018-11-02T03:21:06.590Z,92.18
2018-11-02T03:23:35.726Z,92.54
2018-11-02T03:26:05.080Z,92.41
2018-11-02T03:28:34.225Z,92.73
2018-11-02T03:31:03.372Z,92.76
2018-11-02T03:33:32.588Z,93.13
2018-11-02T03:36:01.739Z,93.09
2018-11-02T03:38:30.873Z,93.11
2018-11-02T03:41:00.020Z,93.17
2018-11-02T03:43:29.176Z,93.05
2018-11-02T03:45:58.426Z,92.82
2018-11-02T03:48:27.620Z,92.66
2018-11-02T03:50:57.280Z,92.71
2018-11-02T03:53:26.432Z,92.55
2018-11-02T03:55:55.561Z,92.51
2018-11-02T03:58:24.709Z,92.61
2018-11-02T04:00:55.020Z,92.84
2018-11-02T04:03:24.129Z,92.24
2018-11-02T04:05:53.260Z,91.98
2018-11-02T04:08:22.393Z,92.40
2018-11-02T04:10:51.546Z,92.08
2018-11-02T04:13:20.798Z,91.84
2018-11-02T04:15:49.929Z,91.75
2018-11-02T04:18:19.076Z,91.71
2018-11-02T04:20:48.764Z,91.35
2018-11-02T04:23:17.903Z,91.29
2018-11-02T04:25:47.000Z,90.99
2018-11-02T04:28:16.174Z,91.36
2018-11-02T04:30:45.292Z,91.09
2018-11-02T04:33:14.400Z,91.11
2018-11-02T04:35:43.558Z,91.08
2018-11-02T04:38:12.727Z,91.49
2018-11-02T04:40:41.886Z,91.51
2018-11-02T04:43:11.717Z,91.61
2018-11-02T04:45:41.522Z,92.12
2018-11-02T04:48:11.978Z,91.83
2018-11-02T04:50:41.755Z,91.84
2018-11-02T04:53:11.042Z,91.95
2018-11-02T04:55:40.173Z,92.08
2018-11-02T04:58:09.349Z,92.29
2018-11-02T05:00:38.503Z,92.52
2018-11-02T05:03:07.858Z,92.67
2018-11-02T05:05:36.977Z,92.59
2018-11-02T05:08:06.145Z,92.93
2018-11-02T05:10:35.818Z,93.09
2018-11-02T05:13:05.009Z,93.33
2018-11-02T05:15:34.130Z,92.91
2018-11-02T05:18:03.273Z,92.85
2018-11-02T05:20:32.415Z,92.89
2018-11-02T05:23:01.625Z,92.51
2018-11-02T05:25:30.752Z,92.54
2018-11-02T05:27:59.870Z,92.96
2018-11-02T05:30:28.994Z,92.78
2018-11-02T05:32:58.162Z,93.13
2018-11-02T05:35:27.328Z,92.87
2018-11-02T05:37:56.486Z,93.09
2018-11-02T05:40:25.628Z,92.73
2018-11-02T05:42:54.779Z,92.64
2018-11-02T05:45:23.905Z,92.32
2018-11-02T05:47:53.056Z,92.43
2018-11-02T05:50:22.356Z,92.34
2018-11-02T05:52:51.481Z,92.02
2018-11-02T05:55:20.610Z,91.67
2018-11-02T05:57:49.735Z,91.41
2018-11-02T06:00:19.033Z,91.85
2018-11-02T06:02:48.206Z,91.88
2018-11-02T06:05:17.370Z,92.00
2018-11-02T06:07:46.601Z,91.77
2018-11-02T06:10:15.735Z,91.61
2018-11-02T06:12:44.869Z,91.69
2018-11-02T06:15:14.233Z,91.86
2018-11-02T06:17:43.390Z,91.38
2018-11-02T06:20:12.604Z,91.32
2018-11-02T06:22:42.194Z,90.80
2018-11-02T06:25:11.773Z,91.01
2018-11-02T06:27:40.901Z,90.67
2018-11-02T06:30:10.589Z,90.29
2018-11-02T06:32:39.824Z,90.36
2018-11-02T06:35:09.499Z,89.88
2018-11-02T06:37:38.598Z,89.90
2018-11-02T06:40:08.014Z,89.71
2018-11-02T06:42:37.315Z,89.54
2018-11-02T06:45:08.309Z,89.82
2018-11-02T06:47:37.277Z,89.59
2018-11-02T06:50:06.589Z,89.44
2018-11-02T06:52:35.920Z,89.94
2018-11-02T06:55:05.721Z,89.73
2018-11-02T06:57:34.894Z,89.71
2018-11-02T07:00:05.073Z,89.76
2018-11-02T07:02:33.981Z,89.83
2018-11-02T07:05:03.111Z,90.07
2018-11-02T07:07:32.398Z,89.57
2018-11-02T07:10:01.498Z,89.94
2018-11-02T07:12:30.656Z,89.50
2018-11-02T07:14:59.783Z,89.68
2018-11-02T07:17:28.936Z,89.32
2018-11-02T07:19:58.185Z,88.85
2018-11-02T07:22:27.505Z,88.83
2018-11-02T07:24:56.760Z,88.72
2018-11-02T07:27:26.219Z,88.23
2018-11-02T07:29:56.199Z,87.74
2018-11-02T07:32:25.403Z,87.48
2018-11-02T07:34:54.549Z,86.89
2018-11-02T07:37:23.673Z,86.52
2018-11-02T07:39:52.841Z,86.40
2018-11-02T07:42:22.117Z,86.34
2018-11-02T07:44:51.270Z,87.00
2018-11-02T07:47:20.429Z,86.82
2018-11-02T07:49:49.577Z,87.00
2018-11-02T07:52:18.693Z,86.33
2018-11-02T07:54:47.903Z,87.25
2018-11-02T07:57:17.142Z,86.36
2018-11-02T07:59:46.428Z,86.28
2018-11-02T08:02:15.664Z,85.16
2018-11-02T08:04:44.805Z,84.41
2018-11-02T08:07:14.000Z,83.98
2018-11-02T08:09:43.870Z,83.98
2018-11-02T08:12:13.037Z,84.64
2018-11-02T08:14:42.353Z,84.01
2018-11-02T08:17:11.549Z,82.52
2018-11-02T08:19:40.705Z,82.66
2018-11-02T08:22:09.884Z,80.61
2018-11-02T08:24:39.173Z,81.33
2018-11-02T08:27:08.468Z,80.60
2018-11-02T08:29:37.717Z,80.49
2018-11-02T08:32:07.006Z,80.75
2018-11-02T08:34:36.184Z,78.83
2018-11-02T08:37:05.540Z,79.92
2018-11-02T08:39:34.684Z,78.90
2018-11-02T08:42:04.027Z,79.22
2018-11-02T08:44:33.247Z,76.87
2018-11-02T08:47:02.470Z,77.50
2018-11-02T08:49:31.783Z,77.35
2018-11-02T08:52:01.142Z,77.10
2018-11-02T08:54:30.365Z,76.06
2018-11-02T08:56:59.628Z,77.78
2018-11-02T08:59:29.025Z,78.01
2018-11-02T09:01:58.166Z,76.75
2018-11-02T09:04:27.480Z,76.02
2018-11-02T09:06:56.618Z,75.71
2018-11-02T09:09:26.024Z,75.74
2018-11-02T09:11:55.236Z,75.83
2018-11-02T09:14:24.331Z,75.92
2018-11-02T09:16:53.564Z,75.38
2018-11-02T09:19:22.757Z,74.77
2018-11-02T09:21:52.187Z,74.06
2018-11-02T09:24:21.341Z,74.27
2018-11-02T09:26:50.666Z,74.35
2018-11-02T09:29:19.953Z,73.41
2018-11-02T09:31:49.232Z,72.17
2018-11-02T09:34:18.530Z,72.60
2018-11-02T09:36:47.758Z,71.91
2018-11-02T09:39:16.951Z,71.67
2018-11-02T09:41:46.102Z,69.91
2018-11-02T09:44:15.243Z,69.88
2018-11-02T09:46:44.509Z,70.02
2018-11-02T09:49:13.714Z,70.71
2018-11-02T09:51:43.039Z,71.11
2018-11-02T09:54:12.149Z,70.94
2018-11-02T09:56:41.311Z,71.59
2018-11-02T09:59:10.478Z,71.12
2018-11-02T10:01:39.682Z,71.70
2018-11-02T10:04:08.840Z,72.25
2018-11-02T10:06:38.029Z,73.23
2018-11-02T10:09:10.180Z,73.06
2018-11-02T10:11:39.418Z,73.53
2018-11-02T10:14:09.420Z,72.72
2018-11-02T10:16:38.626Z,72.88
2018-11-02T10:19:08.333Z,73.42
2018-11-02T10:21:37.505Z,72.47
2018-11-02T10:24:07.233Z,72.75
2018-11-02T10:26:36.562Z,73.51
2018-11-02T10:29:06.311Z,73.50
2018-11-02T10:31:35.618Z,71.46
2018-11-02T10:34:04.890Z,71.36
2018-11-02T10:36:35.010Z,71.28
2018-11-02T10:39:05.517Z,72.17
2018-11-02T10:41:37.781Z,69.92
2018-11-02T10:44:07.084Z,70.96
2018-11-02T10:46:36.418Z,71.36
2018-11-02T10:49:05.921Z,70.34
2018-11-02T10:51:35.160Z,68.86
2018-11-02T10:54:04.455Z,69.39
2018-11-02T10:56:33.590Z,68.46
2018-11-02T10:59:02.770Z,68.46
2018-11-02T11:01:37.162Z,69.73
2018-11-02T11:04:07.299Z,70.03
2018-11-02T11:06:36.792Z,69.76
2018-11-02T11:09:09.449Z,69.34
2018-11-02T11:11:38.821Z,68.37
2018-11-02T11:14:08.142Z,69.76
2018-11-02T11:16:37.362Z,69.86
2018-11-02T11:19:07.819Z,68.45
2018-11-02T11:21:37.560Z,69.40
2018-11-02T11:24:06.939Z,70.12
2018-11-02T11:26:36.526Z,70.10
2018-11-02T11:29:06.059Z,71.00
2018-11-02T11:31:35.539Z,67.74
2018-11-02T11:34:05.544Z,66.58
2018-11-02T11:36:34.695Z,68.44
2018-11-02T11:39:05.200Z,68.87
2018-11-02T11:41:35.180Z,69.23
2018-11-02T11:44:04.365Z,69.70
2018-11-02T11:46:33.549Z,67.92
2018-11-02T11:49:02.867Z,68.09
2018-11-02T11:51:31.950Z,69.54
2018-11-02T11:54:01.200Z,70.14
2018-11-02T11:56:30.361Z,70.19
2018-11-02T11:58:59.629Z,68.89
2018-11-02T12:01:28.816Z,68.62
2018-11-02T12:03:58.105Z,68.56
2018-11-02T12:06:27.295Z,69.76
2018-11-02T12:08:56.512Z,68.66
2018-11-02T12:11:25.698Z,68.77
2018-11-02T12:13:55.082Z,69.10
2018-11-02T12:16:24.322Z,70.19
2018-11-02T12:18:53.579Z,70.70
2018-11-02T12:21:22.813Z,69.90
2018-11-02T12:23:52.053Z,69.83
2018-11-02T12:26:21.360Z,68.43
2018-11-02T12:28:50.643Z,69.11
2018-11-02T12:31:19.721Z,69.96
2018-11-02T12:33:48.916Z,68.89
2018-11-02T12:36:18.081Z,68.18
2018-11-02T12:38:47.206Z,69.38
2018-11-02T12:41:16.388Z,70.37
2018-11-02T12:43:45.619Z,70.66
2018-11-02T12:46:14.803Z,69.17
2018-11-02T12:48:44.150Z,68.90
2018-11-02T12:51:13.197Z,69.11
2018-11-02T12:53:42.402Z,69.41
2018-11-02T12:56:11.603Z,70.44
2018-11-02T12:58:40.737Z,70.95
2018-11-02T13:01:09.949Z,69.58
2018-11-02T13:03:39.155Z,69.99
2018-11-02T13:06:08.380Z,70.20
2018-11-02T13:08:37.584Z,70.19
2018-11-02T13:11:06.833Z,70.24
2018-11-02T13:13:35.954Z,70.73
2018-11-02T13:16:05.324Z,71.11
2018-11-02T13:18:34.420Z,70.22
2018-11-02T13:21:03.564Z,71.03
2018-11-02T13:23:32.695Z,71.15
2018-11-02T13:26:01.991Z,71.05
2018-11-02T13:28:31.004Z,70.20
2018-11-02T13:31:01.174Z,71.28
2018-11-02T13:33:30.225Z,70.74
2018-11-02T13:35:59.389Z,70.76
2018-11-02T13:38:28.552Z,70.98
2018-11-02T13:40:58.288Z,71.31
2018-11-02T13:43:27.581Z,71.82
2018-11-02T13:45:56.686Z,72.20
2018-11-02T13:48:25.818Z,72.00
2018-11-02T13:50:54.981Z,72.09
2018-11-02T13:53:24.209Z,72.89
2018-11-02T13:55:53.362Z,72.50
2018-11-02T13:58:22.498Z,72.50
2018-11-02T14:00:51.804Z,74.64
2018-11-02T14:03:20.930Z,74.73
2018-11-02T14:05:50.209Z,73.30
2018-11-02T14:08:19.367Z,73.00
2018-11-02T14:10:48.534Z,72.84
2018-11-02T14:13:17.696Z,73.05
2018-11-02T14:15:46.887Z,73.12
2018-11-02T14:18:16.104Z,73.48
2018-11-02T14:20:45.282Z,73.62
2018-11-02T14:23:14.446Z,74.85
2018-11-02T14:25:43.568Z,75.42
2018-11-02T14:28:12.719Z,74.60
2018-11-02T14:30:41.851Z,74.50
2018-11-02T14:33:11.668Z,74.99
2018-11-02T14:35:40.810Z,75.56
2018-11-02T14:38:09.958Z,75.62
2018-11-02T14:40:39.270Z,75.86
2018-11-02T14:43:08.713Z,76.01
2018-11-02T14:45:37.948Z,76.27
2018-11-02T14:48:07.174Z,76.90
2018-11-02T14:50:36.314Z,77.80
2018-11-02T14:53:05.974Z,77.76
2018-11-02T14:55:35.181Z,78.03
2018-11-02T14:58:04.710Z,78.81
2018-11-02T15:00:33.934Z,79.21
2018-11-02T15:03:03.103Z,79.32
2018-11-02T15:05:32.270Z,80.77
2018-11-02T15:08:01.446Z,80.96
2018-11-02T15:10:30.632Z,79.69
2018-11-02T15:12:59.874Z,80.84
2018-11-02T15:15:29.092Z,81.47
2018-11-02T15:17:58.311Z,81.21
2018-11-02T15:20:27.509Z,81.31
2018-11-02T15:22:56.670Z,81.45
2018-11-02T15:25:25.836Z,81.36
2018-11-02T15:27:55.137Z,81.04
2018-11-02T15:30:24.306Z,81.66
2018-11-02T15:32:53.469Z,82.62
2018-11-02T15:35:22.611Z,83.21
2018-11-02T15:37:51.843Z,83.26
2018-11-02T15:40:21.012Z,83.33
2018-11-02T15:42:50.200Z,84.58
2018-11-02T15:45:19.385Z,84.52
2018-11-02T15:47:48.558Z,85.01
2018-11-02T15:50:17.893Z,85.44
2018-11-02T15:52:47.109Z,85.21
2018-11-02T15:55:16.547Z,85.64
2018-11-02T15:57:45.730Z,85.53
2018-11-02T16:00:17.441Z,85.40
2018-11-02T16:02:47.908Z,85.52
2018-11-02T16:05:17.148Z,86.07
2018-11-02T16:07:46.352Z,86.43
2018-11-02T16:10:15.558Z,86.87
2018-11-02T16:12:45.078Z,87.52
2018-11-02T16:15:14.350Z,87.58
2018-11-02T16:17:43.505Z,87.43
2018-11-02T16:20:14.221Z,88.33
2018-11-02T16:22:43.910Z,87.59
2018-11-02T16:25:13.517Z,87.31
2018-11-02T16:27:42.772Z,87.96
2018-11-02T16:30:12.459Z,88.02
2018-11-02T16:32:41.581Z,88.19
2018-11-02T16:35:11.607Z,88.61
2018-11-02T16:37:40.800Z,88.30
2018-11-02T16:40:14.107Z,88.44
2018-11-02T16:42:43.968Z,88.55
2018-11-02T16:45:14.226Z,88.69
2018-11-02T16:47:44.227Z,88.42
2018-11-02T16:50:14.648Z,88.25
2018-11-02T16:52:44.216Z,88.80
2018-11-02T16:55:13.573Z,88.19
2018-11-02T16:57:42.861Z,87.87
2018-11-02T17:00:14.676Z,88.35
2018-11-02T17:02:44.817Z,87.92
2018-11-02T17:05:14.009Z,87.76
2018-11-02T17:07:43.824Z,87.54
2018-11-02T17:10:14.158Z,87.98
2018-11-02T17:12:43.840Z,88.33
2018-11-02T17:15:13.669Z,88.69
2018-11-02T17:17:42.913Z,89.16
2018-11-02T17:20:14.634Z,90.48
2018-11-02T17:22:43.858Z,91.45
2018-11-02T17:25:13.392Z,92.26
2018-11-02T17:27:42.590Z,93.20
2018-11-02T17:30:14.705Z,94.03
2018-11-02T17:32:43.953Z,94.60
2018-11-02T17:35:13.189Z,95.25
2018-11-02T17:37:42.453Z,95.72
2018-11-02T17:40:12.844Z,97.10
2018-11-02T17:42:42.493Z,97.50
2018-11-02T17:45:11.861Z,97.35
2018-11-02T17:47:41.961Z,97.96
2018-11-02T17:50:12.499Z,98.36
2018-11-02T17:52:41.748Z,98.67
2018-11-02T17:55:10.881Z,98.83
2018-11-02T17:57:40.283Z,99.66
2018-11-02T18:00:11.352Z,99.64
2018-11-02T18:02:40.588Z,99.92
2018-11-02T18:05:10.621Z,100.00
2018-11-02T18:07:39.809Z,100.00
2018-11-02T18:10:11.133Z,100.00
2018-11-02T18:12:40.665Z,100.00
2018-11-02T18:15:10.792Z,100.00
2018-11-02T18:17:39.962Z,100.00
2018-11-02T18:20:11.345Z,100.00
2018-11-02T18:22:40.514Z,100.00
2018-11-02T18:25:10.214Z,100.00
2018-11-02T18:27:39.565Z,100.00
2018-11-02T18:30:09.978Z,100.00
2018-11-02T18:32:39.169Z,100.00
2018-11-02T18:35:09.125Z,100.00
2018-11-02T18:37:38.197Z,100.00
2018-11-02T18:40:10.168Z,100.00
2018-11-02T18:42:39.345Z,100.00
2018-11-02T18:45:11.009Z,100.00
2018-11-02T18:47:45.240Z,100.00
2018-11-02T18:50:16.188Z,100.00
2018-11-02T18:52:45.947Z,100.00
2018-11-02T18:55:15.323Z,100.00
2018-11-02T18:57:44.560Z,100.00
2018-11-02T19:00:13.975Z,100.00
2018-11-02T19:02:43.236Z,100.00
2018-11-02T19:05:18.208Z,100.00
2018-11-02T19:07:47.356Z,100.00
2018-11-02T19:10:16.552Z,100.00
2018-11-02T19:12:45.758Z,100.00
2018-11-02T19:15:16.237Z,100.00
2018-11-02T19:17:45.462Z,100.00
2018-11-02T19:20:15.161Z,100.00
2018-11-02T19:22:44.448Z,100.00
2018-11-02T19:25:14.745Z,100.00
2018-11-02T19:27:44.775Z,100.00
2018-11-02T19:30:14.682Z,100.00
2018-11-02T19:32:44.133Z,100.00
2018-11-02T19:35:14.252Z,100.00
2018-11-02T19:37:43.765Z,100.00
2018-11-02T19:40:14.162Z,100.00
2018-11-02T19:42:43.545Z,100.00
2018-11-02T19:45:13.167Z,100.00
2018-11-02T19:47:47.589Z,100.00
2018-11-02T19:50:17.784Z,100.00
2018-11-02T19:52:46.983Z,100.00
2018-11-02T19:55:16.301Z,100.00
2018-11-02T19:57:45.621Z,100.00
2018-11-02T20:00:16.026Z,100.00
2018-11-02T20:02:45.208Z,100.00
2018-11-02T20:05:16.296Z,100.00
2018-11-02T20:07:45.595Z,100.00
2018-11-02T20:10:15.689Z,100.00
2018-11-02T20:12:45.537Z,100.00
2018-11-02T20:15:15.410Z,100.00
2018-11-02T20:17:44.660Z,100.00
2018-11-02T20:20:14.932Z,100.00
2018-11-02T20:22:44.109Z,100.00
2018-11-02T20:25:16.557Z,100.00
2018-11-02T20:27:45.782Z,100.00
2018-11-02T20:30:16.655Z,100.00
2018-11-02T20:32:45.949Z,100.00
2018-11-02T20:35:15.703Z,100.00
2018-11-02T20:37:45.000Z,100.00
2018-11-02T20:40:16.609Z,100.00
2018-11-02T20:42:46.079Z,100.00
2018-11-02T20:45:15.857Z,100.00
2018-11-02T20:47:47.158Z,100.00
2018-11-02T20:50:16.668Z,100.00
2018-11-02T20:52:46.169Z,100.00
2018-11-02T20:55:15.777Z,100.00
2018-11-02T20:57:44.947Z,100.00
2018-11-02T21:00:15.516Z,100.00
2018-11-02T21:02:45.171Z,100.00
2018-11-02T21:05:16.614Z,100.00
2018-11-02T21:07:46.446Z,100.00
2018-11-02T21:10:16.710Z,100.00
2018-11-02T21:12:45.933Z,100.00
2018-11-02T21:15:17.369Z,100.00
2018-11-02T21:17:46.507Z,100.00
2018-11-02T21:20:17.121Z,100.00
2018-11-02T21:22:46.293Z,100.00
2018-11-02T21:25:15.802Z,100.00
2018-11-02T21:27:45.833Z,100.00
2018-11-02T21:30:18.983Z,100.00
2018-11-02T21:32:48.711Z,100.00
2018-11-02T21:35:18.464Z,100.00
2018-11-02T21:37:48.362Z,100.00
2018-11-02T21:40:19.006Z,100.00
2018-11-02T21:42:48.249Z,100.00
2018-11-02T21:45:18.908Z,100.00
2018-11-02T21:47:48.146Z,100.00
2018-11-02T21:50:17.746Z,100.00
2018-11-02T21:52:46.945Z,100.00
2018-11-02T21:55:16.129Z,100.00
2018-11-02T21:57:45.313Z,100.00
2018-11-02T22:00:17.893Z,100.00
2018-11-02T22:02:47.478Z,100.00
2018-11-02T22:05:16.685Z,100.00
2018-11-02T22:07:47.329Z,100.00
2018-11-02T22:10:16.928Z,100.00
2018-11-02T22:12:46.148Z,100.00
2018-11-02T22:15:15.313Z,100.00
2018-11-02T22:17:44.538Z,100.00
2018-11-02T22:20:14.938Z,100.00
2018-11-02T22:22:44.225Z,100.00
2018-11-02T22:25:14.264Z,100.00
2018-11-02T22:27:43.409Z,100.00
2018-11-02T22:30:15.013Z,100.00
2018-11-02T22:32:44.221Z,100.00
2018-11-02T22:35:14.027Z,100.00
2018-11-02T22:37:43.517Z,100.00
2018-11-02T22:40:13.316Z,100.00
2018-11-02T22:42:43.060Z,100.00
2018-11-02T22:45:13.511Z,100.00
2018-11-02T22:47:46.884Z,100.00
2018-11-02T22:50:16.078Z,100.00
2018-11-02T22:52:45.240Z,100.00
2018-11-02T22:55:14.474Z,100.00
2018-11-02T22:57:43.657Z,100.00
2018-11-02T23:00:16.357Z,100.00
2018-11-02T23:02:46.589Z,100.00
2018-11-02T23:05:15.782Z,100.00
2018-11-02T23:07:45.257Z,100.00
2018-11-02T23:10:14.546Z,100.00
2018-11-02T23:12:43.734Z,100.00
2018-11-02T23:15:13.269Z,100.00
2018-11-02T23:17:42.440Z,100.00
2018-11-02T23:20:13.534Z,100.00
2018-11-02T23:22:42.814Z,100.00
2018-11-02T23:25:12.531Z,100.00
2018-11-02T23:27:43.159Z,100.00
2018-11-02T23:30:12.481Z,100.00
2018-11-02T23:32:41.741Z,100.00
2018-11-02T23:35:10.990Z,100.00
2018-11-02T23:37:40.147Z,100.00
2018-11-02T23:40:10.384Z,100.00
2018-11-02T23:42:39.614Z,100.00
2018-11-02T23:45:10.078Z,100.00
2018-11-02T23:47:39.421Z,100.00
2018-11-02T23:50:09.732Z,100.00
2018-11-02T23:52:39.754Z,100.00
2018-11-02T23:55:09.256Z,100.00
2018-11-02T23:57:38.755Z,100.00
